sensor_id;sensor_type;location;lat;lon;timestamp;P1;durP1;ratioP1;P2;durP2;ratioP2
39982;SDS011;25670;44.782;10.356;2024-01-15T00:00:46;143.60;;;58.38;;
39982;SDS011;25670;44.782;10.356;2024-01-15T00:03:12;139.98;;;59.38;;
39982;SDS011;25670;44.782;10.356;2024-01-15T00:05:38;138.60;;;58.50;;
39982;SDS011;25670;44.782;10.356;2024-01-15T00:08:04;132.65;;;57.90;;
39982;SDS011;25670;44.782;10.356;2024-01-15T00:10:30;129.50;;;55.08;;
39982;SDS011;25670;44.782;10.356;2024-01-15T00:12:57;141.82;;;59.05;;
39982;SDS011;25670;44.782;10.356;2024-01-15T00:15:23;162.45;;;63.05;;
39982;SDS011;25670;44.782;10.356;2024-01-15T00:17:49;147.50;;;59.90;;
39982;SDS011;25670;44.782;10.356;2024-01-15T00:20:15;155.75;;;60.28;;
39982;SDS011;25670;44.782;10.356;2024-01-15T00:22:42;156.15;;;61.70;;
39982;SDS011;25670;44.782;10.356;2024-01-15T00:25:08;149.38;;;60.17;;
39982;SDS011;25670;44.782;10.356;2024-01-15T00:27:34;152.18;;;59.95;;
39982;SDS011;25670;44.782;10.356;2024-01-15T00:30:01;152.35;;;60.42;;
39982;SDS011;25670;44.782;10.356;2024-01-15T00:32:27;153.27;;;61.83;;
39982;SDS011;25670;44.782;10.356;2024-01-15T00:34:53;144.30;;;58.53;;
39982;SDS011;25670;44.782;10.356;2024-01-15T00:37:20;133.32;;;55.40;;
39982;SDS011;25670;44.782;10.356;2024-01-15T00:39:46;117.22;;;53.63;;
39982;SDS011;25670;44.782;10.356;2024-01-15T00:42:12;130.52;;;57.25;;
39982;SDS011;25670;44.782;10.356;2024-01-15T00:44:38;134.68;;;54.78;;
39982;SDS011;25670;44.782;10.356;2024-01-15T00:47:04;142.02;;;58.45;;
39982;SDS011;25670;44.782;10.356;2024-01-15T00:49:31;136.07;;;58.10;;
39982;SDS011;25670;44.782;10.356;2024-01-15T00:51:57;143.48;;;60.72;;
39982;SDS011;25670;44.782;10.356;2024-01-15T00:54:23;153.20;;;60.38;;
39982;SDS011;25670;44.782;10.356;2024-01-15T00:56:49;141.60;;;59.35;;
39982;SDS011;25670;44.782;10.356;2024-01-15T00:59:16;138.73;;;55.20;;
39982;SDS011;25670;44.782;10.356;2024-01-15T01:01:43;146.20;;;59.85;;
39982;SDS011;25670;44.782;10.356;2024-01-15T01:04:11;141.95;;;60.03;;
39982;SDS011;25670;44.782;10.356;2024-01-15T01:06:38;145.68;;;57.88;;
39982;SDS011;25670;44.782;10.356;2024-01-15T01:09:05;147.25;;;59.78;;
39982;SDS011;25670;44.782;10.356;2024-01-15T01:11:31;149.45;;;59.78;;
39982;SDS011;25670;44.782;10.356;2024-01-15T01:13:58;136.55;;;60.40;;
39982;SDS011;25670;44.782;10.356;2024-01-15T01:16:24;130.25;;;57.63;;
39982;SDS011;25670;44.782;10.356;2024-01-15T01:18:50;136.05;;;57.58;;
39982;SDS011;25670;44.782;10.356;2024-01-15T01:21:17;138.48;;;57.08;;
39982;SDS011;25670;44.782;10.356;2024-01-15T01:23:43;129.90;;;57.67;;
39982;SDS011;25670;44.782;10.356;2024-01-15T01:26:09;129.13;;;57.42;;
39982;SDS011;25670;44.782;10.356;2024-01-15T01:28:35;125.25;;;55.15;;
39982;SDS011;25670;44.782;10.356;2024-01-15T01:31:01;139.75;;;58.42;;
39982;SDS011;25670;44.782;10.356;2024-01-15T01:33:28;137.02;;;56.67;;
39982;SDS011;25670;44.782;10.356;2024-01-15T01:35:54;133.60;;;57.53;;
39982;SDS011;25670;44.782;10.356;2024-01-15T01:38:20;129.60;;;57.80;;
39982;SDS011;25670;44.782;10.356;2024-01-15T01:40:46;125.53;;;56.70;;
39982;SDS011;25670;44.782;10.356;2024-01-15T01:43:12;141.90;;;58.58;;
39982;SDS011;25670;44.782;10.356;2024-01-15T01:45:39;144.82;;;59.80;;
39982;SDS011;25670;44.782;10.356;2024-01-15T01:48:05;146.93;;;60.17;;
39982;SDS011;25670;44.782;10.356;2024-01-15T01:50:31;146.85;;;61.67;;
39982;SDS011;25670;44.782;10.356;2024-01-15T01:52:58;146.23;;;59.30;;
39982;SDS011;25670;44.782;10.356;2024-01-15T01:55:26;137.02;;;57.25;;
39982;SDS011;25670;44.782;10.356;2024-01-15T01:57:54;141.30;;;58.50;;
39982;SDS011;25670;44.782;10.356;2024-01-15T02:00:21;136.32;;;58.15;;
39982;SDS011;25670;44.782;10.356;2024-01-15T02:02:48;150.98;;;59.03;;
39982;SDS011;25670;44.782;10.356;2024-01-15T02:05:14;147.35;;;60.33;;
39982;SDS011;25670;44.782;10.356;2024-01-15T02:10:12;161.82;;;59.35;;
39982;SDS011;25670;44.782;10.356;2024-01-15T02:12:38;158.18;;;60.97;;
39982;SDS011;25670;44.782;10.356;2024-01-15T02:15:05;172.77;;;64.78;;
39982;SDS011;25670;44.782;10.356;2024-01-15T02:17:31;162.90;;;62.40;;
39982;SDS011;25670;44.782;10.356;2024-01-15T02:19:57;166.63;;;61.47;;
39982;SDS011;25670;44.782;10.356;2024-01-15T02:22:24;157.80;;;63.60;;
39982;SDS011;25670;44.782;10.356;2024-01-15T02:24:50;152.40;;;62.88;;
39982;SDS011;25670;44.782;10.356;2024-01-15T02:27:16;165.60;;;61.03;;
39982;SDS011;25670;44.782;10.356;2024-01-15T02:29:42;155.73;;;60.38;;
39982;SDS011;25670;44.782;10.356;2024-01-15T02:32:09;142.75;;;58.97;;
39982;SDS011;25670;44.782;10.356;2024-01-15T02:34:35;153.73;;;60.42;;
39982;SDS011;25670;44.782;10.356;2024-01-15T02:37:01;150.05;;;58.65;;
39982;SDS011;25670;44.782;10.356;2024-01-15T02:39:27;137.57;;;57.95;;
39982;SDS011;25670;44.782;10.356;2024-01-15T02:41:54;139.25;;;58.08;;
39982;SDS011;25670;44.782;10.356;2024-01-15T02:44:23;134.02;;;55.45;;
39982;SDS011;25670;44.782;10.356;2024-01-15T02:46:49;134.48;;;53.83;;
39982;SDS011;25670;44.782;10.356;2024-01-15T02:49:15;131.68;;;56.63;;
39982;SDS011;25670;44.782;10.356;2024-01-15T02:51:41;132.75;;;55.80;;
39982;SDS011;25670;44.782;10.356;2024-01-15T02:54:08;137.27;;;55.40;;
39982;SDS011;25670;44.782;10.356;2024-01-15T02:56:34;135.82;;;56.80;;
39982;SDS011;25670;44.782;10.356;2024-01-15T02:59:00;133.60;;;57.47;;
39982;SDS011;25670;44.782;10.356;2024-01-15T03:01:26;135.90;;;57.25;;
39982;SDS011;25670;44.782;10.356;2024-01-15T03:03:52;144.90;;;56.88;;
39982;SDS011;25670;44.782;10.356;2024-01-15T03:06:20;127.72;;;54.60;;
39982;SDS011;25670;44.782;10.356;2024-01-15T03:08:46;130.40;;;55.25;;
39982;SDS011;25670;44.782;10.356;2024-01-15T03:11:13;135.80;;;55.83;;
39982;SDS011;25670;44.782;10.356;2024-01-15T03:13:39;137.02;;;57.05;;
39982;SDS011;25670;44.782;10.356;2024-01-15T03:16:06;127.65;;;54.30;;
39982;SDS011;25670;44.782;10.356;2024-01-15T03:18:32;130.80;;;57.08;;
39982;SDS011;25670;44.782;10.356;2024-01-15T03:20:58;134.73;;;56.03;;
39982;SDS011;25670;44.782;10.356;2024-01-15T03:23:26;133.05;;;56.70;;
39982;SDS011;25670;44.782;10.356;2024-01-15T03:25:53;131.95;;;56.13;;
39982;SDS011;25670;44.782;10.356;2024-01-15T03:28:19;118.60;;;54.72;;
39982;SDS011;25670;44.782;10.356;2024-01-15T03:30:45;132.43;;;56.22;;
39982;SDS011;25670;44.782;10.356;2024-01-15T03:33:11;127.55;;;55.78;;
39982;SDS011;25670;44.782;10.356;2024-01-15T03:35:37;109.93;;;52.53;;
39982;SDS011;25670;44.782;10.356;2024-01-15T03:38:04;122.10;;;55.53;;
39982;SDS011;25670;44.782;10.356;2024-01-15T03:40:30;123.13;;;55.42;;
39982;SDS011;25670;44.782;10.356;2024-01-15T03:42:56;123.30;;;54.53;;
39982;SDS011;25670;44.782;10.356;2024-01-15T03:45:23;118.07;;;55.00;;
39982;SDS011;25670;44.782;10.356;2024-01-15T03:47:49;126.43;;;56.63;;
39982;SDS011;25670;44.782;10.356;2024-01-15T03:50:16;133.07;;;57.35;;
39982;SDS011;25670;44.782;10.356;2024-01-15T03:52:42;131.70;;;56.00;;
39982;SDS011;25670;44.782;10.356;2024-01-15T03:55:08;129.38;;;55.72;;
39982;SDS011;25670;44.782;10.356;2024-01-15T03:57:34;131.50;;;56.60;;
39982;SDS011;25670;44.782;10.356;2024-01-15T04:00:00;133.45;;;56.00;;
39982;SDS011;25670;44.782;10.356;2024-01-15T04:02:27;142.23;;;59.03;;
39982;SDS011;25670;44.782;10.356;2024-01-15T04:04:53;131.18;;;56.58;;
39982;SDS011;25670;44.782;10.356;2024-01-15T04:07:19;152.00;;;61.78;;
39982;SDS011;25670;44.782;10.356;2024-01-15T04:09:45;138.52;;;60.88;;
39982;SDS011;25670;44.782;10.356;2024-01-15T04:12:12;141.40;;;61.83;;
39982;SDS011;25670;44.782;10.356;2024-01-15T04:14:38;138.77;;;60.40;;
39982;SDS011;25670;44.782;10.356;2024-01-15T04:17:04;133.60;;;58.85;;
39982;SDS011;25670;44.782;10.356;2024-01-15T04:19:30;129.57;;;58.22;;
39982;SDS011;25670;44.782;10.356;2024-01-15T04:21:56;128.60;;;58.30;;
39982;SDS011;25670;44.782;10.356;2024-01-15T04:24:22;130.88;;;57.00;;
39982;SDS011;25670;44.782;10.356;2024-01-15T04:26:49;134.10;;;60.13;;
39982;SDS011;25670;44.782;10.356;2024-01-15T04:29:15;136.68;;;62.03;;
39982;SDS011;25670;44.782;10.356;2024-01-15T04:31:41;139.38;;;59.83;;
39982;SDS011;25670;44.782;10.356;2024-01-15T04:34:07;156.63;;;63.38;;
39982;SDS011;25670;44.782;10.356;2024-01-15T04:36:42;159.50;;;65.25;;
39982;SDS011;25670;44.782;10.356;2024-01-15T04:39:09;148.60;;;61.00;;
39982;SDS011;25670;44.782;10.356;2024-01-15T04:41:37;139.93;;;61.90;;
39982;SDS011;25670;44.782;10.356;2024-01-15T04:44:03;152.75;;;64.03;;
39982;SDS011;25670;44.782;10.356;2024-01-15T04:46:29;146.88;;;61.63;;
39982;SDS011;25670;44.782;10.356;2024-01-15T04:48:55;146.88;;;63.55;;
39982;SDS011;25670;44.782;10.356;2024-01-15T04:51:22;135.18;;;60.05;;
39982;SDS011;25670;44.782;10.356;2024-01-15T04:53:48;137.63;;;59.60;;
39982;SDS011;25670;44.782;10.356;2024-01-15T04:56:14;166.32;;;63.08;;
39982;SDS011;25670;44.782;10.356;2024-01-15T04:58:41;161.73;;;66.07;;
39982;SDS011;25670;44.782;10.356;2024-01-15T05:01:07;167.88;;;64.47;;
39982;SDS011;25670;44.782;10.356;2024-01-15T05:03:34;156.93;;;63.72;;
39982;SDS011;25670;44.782;10.356;2024-01-15T05:06:00;168.13;;;65.07;;
39982;SDS011;25670;44.782;10.356;2024-01-15T05:08:26;152.57;;;63.00;;
39982;SDS011;25670;44.782;10.356;2024-01-15T05:10:52;147.52;;;59.97;;
39982;SDS011;25670;44.782;10.356;2024-01-15T05:13:18;151.55;;;59.75;;
39982;SDS011;25670;44.782;10.356;2024-01-15T05:15:45;153.25;;;59.25;;
39982;SDS011;25670;44.782;10.356;2024-01-15T05:18:11;157.90;;;60.28;;
39982;SDS011;25670;44.782;10.356;2024-01-15T05:20:37;144.10;;;57.20;;
39982;SDS011;25670;44.782;10.356;2024-01-15T05:23:03;161.02;;;60.45;;
39982;SDS011;25670;44.782;10.356;2024-01-15T05:25:29;156.13;;;61.60;;
39982;SDS011;25670;44.782;10.356;2024-01-15T05:27:55;156.45;;;58.22;;
39982;SDS011;25670;44.782;10.356;2024-01-15T05:30:22;135.68;;;56.47;;
39982;SDS011;25670;44.782;10.356;2024-01-15T05:32:48;139.93;;;56.42;;
39982;SDS011;25670;44.782;10.356;2024-01-15T05:35:14;141.20;;;54.33;;
39982;SDS011;25670;44.782;10.356;2024-01-15T05:37:42;141.05;;;54.45;;
39982;SDS011;25670;44.782;10.356;2024-01-15T05:40:11;152.93;;;58.97;;
39982;SDS011;25670;44.782;10.356;2024-01-15T05:42:41;135.87;;;56.97;;
39982;SDS011;25670;44.782;10.356;2024-01-15T05:45:07;131.85;;;56.75;;
39982;SDS011;25670;44.782;10.356;2024-01-15T05:47:34;128.00;;;55.65;;
39982;SDS011;25670;44.782;10.356;2024-01-15T05:50:00;133.63;;;57.95;;
39982;SDS011;25670;44.782;10.356;2024-01-15T05:52:27;132.85;;;56.15;;
39982;SDS011;25670;44.782;10.356;2024-01-15T05:54:53;136.75;;;56.22;;
39982;SDS011;25670;44.782;10.356;2024-01-15T05:57:19;135.95;;;57.00;;
39982;SDS011;25670;44.782;10.356;2024-01-15T05:59:45;123.55;;;52.58;;
39982;SDS011;25670;44.782;10.356;2024-01-15T06:02:12;132.55;;;56.83;;
39982;SDS011;25670;44.782;10.356;2024-01-15T06:04:38;137.30;;;59.30;;
39982;SDS011;25670;44.782;10.356;2024-01-15T06:07:04;119.60;;;54.10;;
39982;SDS011;25670;44.782;10.356;2024-01-15T06:09:30;128.20;;;55.90;;
39982;SDS011;25670;44.782;10.356;2024-01-15T06:11:57;124.75;;;56.28;;
39982;SDS011;25670;44.782;10.356;2024-01-15T06:14:23;125.22;;;54.75;;
39982;SDS011;25670;44.782;10.356;2024-01-15T06:16:49;119.30;;;53.88;;
39982;SDS011;25670;44.782;10.356;2024-01-15T06:19:16;114.53;;;52.83;;
39982;SDS011;25670;44.782;10.356;2024-01-15T06:21:42;108.40;;;50.05;;
39982;SDS011;25670;44.782;10.356;2024-01-15T06:24:08;106.45;;;47.85;;
39982;SDS011;25670;44.782;10.356;2024-01-15T06:26:35;99.82;;;47.20;;
39982;SDS011;25670;44.782;10.356;2024-01-15T06:29:01;109.55;;;51.15;;
39982;SDS011;25670;44.782;10.356;2024-01-15T06:31:28;101.95;;;48.83;;
39982;SDS011;25670;44.782;10.356;2024-01-15T06:33:55;103.00;;;50.00;;
39982;SDS011;25670;44.782;10.356;2024-01-15T06:36:21;97.47;;;47.45;;
39982;SDS011;25670;44.782;10.356;2024-01-15T06:38:47;95.03;;;47.00;;
39982;SDS011;25670;44.782;10.356;2024-01-15T06:41:13;93.53;;;46.85;;
39982;SDS011;25670;44.782;10.356;2024-01-15T06:43:40;101.50;;;48.00;;
39982;SDS011;25670;44.782;10.356;2024-01-15T06:46:06;100.03;;;47.25;;
39982;SDS011;25670;44.782;10.356;2024-01-15T06:48:32;107.43;;;48.85;;
39982;SDS011;25670;44.782;10.356;2024-01-15T06:50:58;96.90;;;46.83;;
39982;SDS011;25670;44.782;10.356;2024-01-15T06:53:25;102.90;;;48.63;;
39982;SDS011;25670;44.782;10.356;2024-01-15T06:55:51;102.93;;;49.17;;
39982;SDS011;25670;44.782;10.356;2024-01-15T06:58:17;98.05;;;46.60;;
39982;SDS011;25670;44.782;10.356;2024-01-15T07:00:43;97.68;;;47.13;;
39982;SDS011;25670;44.782;10.356;2024-01-15T07:03:09;96.75;;;48.63;;
39982;SDS011;25670;44.782;10.356;2024-01-15T07:05:36;90.18;;;45.13;;
39982;SDS011;25670;44.782;10.356;2024-01-15T07:08:03;96.63;;;46.58;;
39982;SDS011;25670;44.782;10.356;2024-01-15T07:10:30;98.68;;;48.95;;
39982;SDS011;25670;44.782;10.356;2024-01-15T07:12:56;96.55;;;47.53;;
39982;SDS011;25670;44.782;10.356;2024-01-15T07:15:22;97.10;;;46.53;;
39982;SDS011;25670;44.782;10.356;2024-01-15T07:17:48;100.25;;;48.83;;
39982;SDS011;25670;44.782;10.356;2024-01-15T07:20:15;106.40;;;47.38;;
39982;SDS011;25670;44.782;10.356;2024-01-15T07:22:41;97.75;;;48.28;;
39982;SDS011;25670;44.782;10.356;2024-01-15T07:25:07;97.03;;;46.95;;
39982;SDS011;25670;44.782;10.356;2024-01-15T07:27:33;97.75;;;49.20;;
39982;SDS011;25670;44.782;10.356;2024-01-15T07:30:00;101.80;;;49.00;;
39982;SDS011;25670;44.782;10.356;2024-01-15T07:32:26;105.30;;;50.25;;
39982;SDS011;25670;44.782;10.356;2024-01-15T07:34:52;104.05;;;46.33;;
39982;SDS011;25670;44.782;10.356;2024-01-15T07:37:19;110.03;;;48.42;;
39982;SDS011;25670;44.782;10.356;2024-01-15T07:39:45;99.57;;;48.08;;
39982;SDS011;25670;44.782;10.356;2024-01-15T07:42:11;103.13;;;48.95;;
39982;SDS011;25670;44.782;10.356;2024-01-15T07:44:37;111.05;;;49.00;;
39982;SDS011;25670;44.782;10.356;2024-01-15T07:47:04;96.47;;;45.50;;
39982;SDS011;25670;44.782;10.356;2024-01-15T07:49:30;108.53;;;47.85;;
39982;SDS011;25670;44.782;10.356;2024-01-15T07:51:56;107.65;;;48.05;;
39982;SDS011;25670;44.782;10.356;2024-01-15T07:54:23;103.05;;;47.90;;
39982;SDS011;25670;44.782;10.356;2024-01-15T07:56:53;102.63;;;47.25;;
39982;SDS011;25670;44.782;10.356;2024-01-15T07:59:23;106.30;;;48.42;;
39982;SDS011;25670;44.782;10.356;2024-01-15T08:01:50;101.40;;;48.28;;
39982;SDS011;25670;44.782;10.356;2024-01-15T08:04:17;102.13;;;47.50;;
39982;SDS011;25670;44.782;10.356;2024-01-15T08:06:43;108.10;;;48.85;;
39982;SDS011;25670;44.782;10.356;2024-01-15T08:09:10;105.65;;;48.03;;
39982;SDS011;25670;44.782;10.356;2024-01-15T08:11:41;96.95;;;45.28;;
39982;SDS011;25670;44.782;10.356;2024-01-15T08:14:08;101.38;;;45.78;;
39982;SDS011;25670;44.782;10.356;2024-01-15T08:16:35;96.43;;;45.22;;
39982;SDS011;25670;44.782;10.356;2024-01-15T08:19:01;97.47;;;45.90;;
39982;SDS011;25670;44.782;10.356;2024-01-15T08:21:28;93.30;;;44.60;;
39982;SDS011;25670;44.782;10.356;2024-01-15T08:23:56;91.30;;;45.00;;
39982;SDS011;25670;44.782;10.356;2024-01-15T08:26:23;90.97;;;44.15;;
39982;SDS011;25670;44.782;10.356;2024-01-15T08:28:49;97.55;;;47.17;;
39982;SDS011;25670;44.782;10.356;2024-01-15T08:31:16;85.55;;;44.58;;
39982;SDS011;25670;44.782;10.356;2024-01-15T08:33:43;84.15;;;43.97;;
39982;SDS011;25670;44.782;10.356;2024-01-15T08:36:09;90.80;;;44.10;;
39982;SDS011;25670;44.782;10.356;2024-01-15T08:38:35;84.95;;;43.58;;
39982;SDS011;25670;44.782;10.356;2024-01-15T08:41:01;88.72;;;42.45;;
39982;SDS011;25670;44.782;10.356;2024-01-15T08:43:28;84.68;;;42.50;;
39982;SDS011;25670;44.782;10.356;2024-01-15T08:45:54;85.20;;;43.28;;
39982;SDS011;25670;44.782;10.356;2024-01-15T08:48:20;84.50;;;43.20;;
39982;SDS011;25670;44.782;10.356;2024-01-15T08:50:46;85.65;;;42.20;;
39982;SDS011;25670;44.782;10.356;2024-01-15T08:53:13;87.90;;;43.50;;
39982;SDS011;25670;44.782;10.356;2024-01-15T08:55:39;90.88;;;43.45;;
39982;SDS011;25670;44.782;10.356;2024-01-15T08:58:08;92.00;;;43.70;;
39982;SDS011;25670;44.782;10.356;2024-01-15T09:00:34;83.53;;;42.92;;
39982;SDS011;25670;44.782;10.356;2024-01-15T09:03:00;92.18;;;44.33;;
39982;SDS011;25670;44.782;10.356;2024-01-15T09:05:28;86.07;;;42.95;;
39982;SDS011;25670;44.782;10.356;2024-01-15T09:07:54;88.15;;;42.63;;
39982;SDS011;25670;44.782;10.356;2024-01-15T09:10:20;78.88;;;41.47;;
39982;SDS011;25670;44.782;10.356;2024-01-15T09:12:46;82.35;;;41.67;;
39982;SDS011;25670;44.782;10.356;2024-01-15T09:15:14;82.07;;;41.30;;
39982;SDS011;25670;44.782;10.356;2024-01-15T09:17:41;81.85;;;40.50;;
39982;SDS011;25670;44.782;10.356;2024-01-15T09:20:08;86.18;;;42.97;;
39982;SDS011;25670;44.782;10.356;2024-01-15T09:22:37;79.78;;;41.88;;
39982;SDS011;25670;44.782;10.356;2024-01-15T09:25:04;87.07;;;43.97;;
39982;SDS011;25670;44.782;10.356;2024-01-15T09:27:31;85.20;;;42.22;;
39982;SDS011;25670;44.782;10.356;2024-01-15T09:29:58;84.03;;;40.72;;
39982;SDS011;25670;44.782;10.356;2024-01-15T09:32:24;83.13;;;42.22;;
39982;SDS011;25670;44.782;10.356;2024-01-15T09:34:50;82.82;;;43.13;;
39982;SDS011;25670;44.782;10.356;2024-01-15T09:37:16;84.15;;;42.20;;
39982;SDS011;25670;44.782;10.356;2024-01-15T09:39:42;79.28;;;41.58;;
39982;SDS011;25670;44.782;10.356;2024-01-15T09:42:09;84.47;;;42.80;;
39982;SDS011;25670;44.782;10.356;2024-01-15T09:44:36;80.18;;;41.63;;
39982;SDS011;25670;44.782;10.356;2024-01-15T09:47:03;77.68;;;40.85;;
39982;SDS011;25670;44.782;10.356;2024-01-15T09:49:31;86.53;;;42.80;;
39982;SDS011;25670;44.782;10.356;2024-01-15T09:51:57;77.03;;;40.70;;
39982;SDS011;25670;44.782;10.356;2024-01-15T09:54:24;82.78;;;41.30;;
39982;SDS011;25670;44.782;10.356;2024-01-15T09:56:54;73.85;;;39.47;;
39982;SDS011;25670;44.782;10.356;2024-01-15T09:59:21;74.47;;;37.38;;
39982;SDS011;25670;44.782;10.356;2024-01-15T10:01:50;81.85;;;39.13;;
39982;SDS011;25670;44.782;10.356;2024-01-15T10:04:16;73.38;;;39.13;;
39982;SDS011;25670;44.782;10.356;2024-01-15T10:06:46;76.35;;;37.60;;
39982;SDS011;25670;44.782;10.356;2024-01-15T10:09:13;72.00;;;38.67;;
39982;SDS011;25670;44.782;10.356;2024-01-15T10:11:42;74.53;;;37.13;;
39982;SDS011;25670;44.782;10.356;2024-01-15T10:14:10;71.32;;;38.95;;
39982;SDS011;25670;44.782;10.356;2024-01-15T10:16:40;74.37;;;38.13;;
39982;SDS011;25670;44.782;10.356;2024-01-15T10:19:08;79.32;;;39.13;;
39982;SDS011;25670;44.782;10.356;2024-01-15T10:21:35;75.45;;;39.78;;
39982;SDS011;25670;44.782;10.356;2024-01-15T10:24:02;78.45;;;40.90;;
39982;SDS011;25670;44.782;10.356;2024-01-15T10:26:29;81.95;;;40.63;;
39982;SDS011;25670;44.782;10.356;2024-01-15T10:28:57;75.80;;;38.30;;
39982;SDS011;25670;44.782;10.356;2024-01-15T10:31:27;72.43;;;37.75;;
39982;SDS011;25670;44.782;10.356;2024-01-15T10:33:54;74.13;;;37.92;;
39982;SDS011;25670;44.782;10.356;2024-01-15T10:36:23;74.50;;;38.15;;
39982;SDS011;25670;44.782;10.356;2024-01-15T10:38:49;73.78;;;39.25;;
39982;SDS011;25670;44.782;10.356;2024-01-15T10:41:15;69.00;;;37.78;;
39982;SDS011;25670;44.782;10.356;2024-01-15T10:43:41;73.78;;;40.53;;
39982;SDS011;25670;44.782;10.356;2024-01-15T10:46:08;79.25;;;40.80;;
39982;SDS011;25670;44.782;10.356;2024-01-15T10:48:34;75.15;;;39.10;;
39982;SDS011;25670;44.782;10.356;2024-01-15T10:51:01;71.63;;;37.10;;
39982;SDS011;25670;44.782;10.356;2024-01-15T10:53:39;73.72;;;38.03;;
39982;SDS011;25670;44.782;10.356;2024-01-15T10:56:06;69.53;;;37.63;;
39982;SDS011;25670;44.782;10.356;2024-01-15T10:58:35;67.30;;;36.10;;
39982;SDS011;25670;44.782;10.356;2024-01-15T11:01:03;67.72;;;35.28;;
39982;SDS011;25670;44.782;10.356;2024-01-15T11:03:30;67.40;;;36.88;;
39982;SDS011;25670;44.782;10.356;2024-01-15T11:05:56;65.50;;;35.42;;
39982;SDS011;25670;44.782;10.356;2024-01-15T11:08:24;68.78;;;36.75;;
39982;SDS011;25670;44.782;10.356;2024-01-15T11:10:51;68.85;;;35.53;;
39982;SDS011;25670;44.782;10.356;2024-01-15T11:13:21;64.28;;;35.65;;
39982;SDS011;25670;44.782;10.356;2024-01-15T11:16:09;63.75;;;33.85;;
39982;SDS011;25670;44.782;10.356;2024-01-15T11:18:39;74.00;;;37.58;;
39982;SDS011;25670;44.782;10.356;2024-01-15T11:23:42;69.00;;;34.53;;
39982;SDS011;25670;44.782;10.356;2024-01-15T11:29:10;65.25;;;35.17;;
39982;SDS011;25670;44.782;10.356;2024-01-15T11:34:20;65.47;;;35.40;;
39982;SDS011;25670;44.782;10.356;2024-01-15T11:37:07;64.72;;;35.80;;
39982;SDS011;25670;44.782;10.356;2024-01-15T11:42:02;59.83;;;35.13;;
39982;SDS011;25670;44.782;10.356;2024-01-15T11:44:29;67.40;;;37.22;;
39982;SDS011;25670;44.782;10.356;2024-01-15T11:52:34;63.80;;;34.63;;
39982;SDS011;25670;44.782;10.356;2024-01-15T11:55:06;69.05;;;36.20;;
39982;SDS011;25670;44.782;10.356;2024-01-15T12:00:09;66.75;;;35.50;;
39982;SDS011;25670;44.782;10.356;2024-01-15T12:02:40;67.25;;;35.10;;
39982;SDS011;25670;44.782;10.356;2024-01-15T12:05:08;66.95;;;34.53;;
39982;SDS011;25670;44.782;10.356;2024-01-15T12:07:35;58.92;;;34.40;;
39982;SDS011;25670;44.782;10.356;2024-01-15T12:10:02;63.83;;;33.78;;
39982;SDS011;25670;44.782;10.356;2024-01-15T12:15:05;56.95;;;33.25;;
39982;SDS011;25670;44.782;10.356;2024-01-15T12:17:31;64.20;;;33.55;;
39982;SDS011;25670;44.782;10.356;2024-01-15T12:19:57;65.35;;;34.35;;
39982;SDS011;25670;44.782;10.356;2024-01-15T12:22:24;64.60;;;34.60;;
39982;SDS011;25670;44.782;10.356;2024-01-15T12:24:50;56.53;;;33.63;;
39982;SDS011;25670;44.782;10.356;2024-01-15T12:27:16;66.03;;;32.97;;
39982;SDS011;25670;44.782;10.356;2024-01-15T12:29:43;59.45;;;33.78;;
39982;SDS011;25670;44.782;10.356;2024-01-15T12:32:09;65.95;;;32.40;;
39982;SDS011;25670;44.782;10.356;2024-01-15T12:34:37;68.90;;;33.28;;
39982;SDS011;25670;44.782;10.356;2024-01-15T12:37:03;53.55;;;31.45;;
39982;SDS011;25670;44.782;10.356;2024-01-15T12:39:30;53.63;;;31.80;;
39982;SDS011;25670;44.782;10.356;2024-01-15T12:41:57;51.05;;;29.60;;
39982;SDS011;25670;44.782;10.356;2024-01-15T12:44:24;51.92;;;30.13;;
39982;SDS011;25670;44.782;10.356;2024-01-15T12:46:50;48.97;;;29.25;;
39982;SDS011;25670;44.782;10.356;2024-01-15T12:49:17;49.03;;;27.52;;
39982;SDS011;25670;44.782;10.356;2024-01-15T12:51:43;47.83;;;28.00;;
39982;SDS011;25670;44.782;10.356;2024-01-15T12:54:17;48.40;;;28.52;;
39982;SDS011;25670;44.782;10.356;2024-01-15T12:56:43;41.80;;;27.65;;
39982;SDS011;25670;44.782;10.356;2024-01-15T12:59:09;42.95;;;28.52;;
39982;SDS011;25670;44.782;10.356;2024-01-15T13:01:35;40.08;;;26.70;;
39982;SDS011;25670;44.782;10.356;2024-01-15T13:04:02;40.35;;;26.00;;
39982;SDS011;25670;44.782;10.356;2024-01-15T13:06:28;39.00;;;26.98;;
39982;SDS011;25670;44.782;10.356;2024-01-15T13:08:55;38.15;;;26.30;;
39982;SDS011;25670;44.782;10.356;2024-01-15T13:11:21;44.15;;;27.67;;
39982;SDS011;25670;44.782;10.356;2024-01-15T13:13:47;35.80;;;26.67;;
39982;SDS011;25670;44.782;10.356;2024-01-15T13:16:13;42.13;;;27.55;;
39982;SDS011;25670;44.782;10.356;2024-01-15T13:18:39;43.72;;;28.55;;
39982;SDS011;25670;44.782;10.356;2024-01-15T13:21:06;44.08;;;29.05;;
39982;SDS011;25670;44.782;10.356;2024-01-15T13:23:33;43.13;;;27.38;;
39982;SDS011;25670;44.782;10.356;2024-01-15T13:25:59;43.35;;;27.65;;
39982;SDS011;25670;44.782;10.356;2024-01-15T13:28:25;47.25;;;28.55;;
39982;SDS011;25670;44.782;10.356;2024-01-15T13:30:51;44.10;;;27.88;;
39982;SDS011;25670;44.782;10.356;2024-01-15T13:33:17;36.30;;;26.92;;
39982;SDS011;25670;44.782;10.356;2024-01-15T13:35:44;35.70;;;24.88;;
39982;SDS011;25670;44.782;10.356;2024-01-15T13:38:10;42.03;;;25.83;;
39982;SDS011;25670;44.782;10.356;2024-01-15T13:40:36;37.90;;;26.48;;
39982;SDS011;25670;44.782;10.356;2024-01-15T13:43:03;43.97;;;24.73;;
39982;SDS011;25670;44.782;10.356;2024-01-15T13:45:34;42.95;;;25.83;;
39982;SDS011;25670;44.782;10.356;2024-01-15T13:48:01;44.50;;;26.40;;
39982;SDS011;25670;44.782;10.356;2024-01-15T13:50:31;39.00;;;26.38;;
39982;SDS011;25670;44.782;10.356;2024-01-15T13:52:57;38.47;;;26.73;;
39982;SDS011;25670;44.782;10.356;2024-01-15T13:55:23;40.10;;;26.83;;
39982;SDS011;25670;44.782;10.356;2024-01-15T13:57:49;41.47;;;26.17;;
39982;SDS011;25670;44.782;10.356;2024-01-15T14:00:16;37.97;;;27.40;;
39982;SDS011;25670;44.782;10.356;2024-01-15T14:02:45;39.25;;;26.30;;
39982;SDS011;25670;44.782;10.356;2024-01-15T14:05:12;39.58;;;27.08;;
39982;SDS011;25670;44.782;10.356;2024-01-15T14:07:38;36.85;;;25.48;;
39982;SDS011;25670;44.782;10.356;2024-01-15T14:10:05;33.55;;;23.75;;
39982;SDS011;25670;44.782;10.356;2024-01-15T14:12:33;33.40;;;23.60;;
39982;SDS011;25670;44.782;10.356;2024-01-15T14:15:00;35.35;;;24.67;;
39982;SDS011;25670;44.782;10.356;2024-01-15T14:17:27;35.00;;;25.23;;
39982;SDS011;25670;44.782;10.356;2024-01-15T14:19:54;37.67;;;26.05;;
39982;SDS011;25670;44.782;10.356;2024-01-15T14:22:20;36.53;;;23.40;;